sensor_id;sensor_type;location;lat;lon;timestamp;P1;durP1;ratioP1;P2;durP2;ratioP2
48765;SDS011;65794;51.836;5.002;2023-02-24T00:02:01;19.08;;;3.33;;
48765;SDS011;65794;51.836;5.002;2023-02-24T00:04:34;17.20;;;2.90;;
48765;SDS011;65794;51.836;5.002;2023-02-24T00:07:04;21.10;;;3.58;;
48765;SDS011;65794;51.836;5.002;2023-02-24T00:09:31;20.27;;;3.30;;
48765;SDS011;65794;51.836;5.002;2023-02-24T00:14:31;17.45;;;2.72;;
48765;SDS011;65794;51.836;5.002;2023-02-24T00:16:59;16.15;;;3.22;;
48765;SDS011;65794;51.836;5.002;2023-02-24T00:19:28;21.23;;;3.05;;
48765;SDS011;65794;51.836;5.002;2023-02-24T00:21:55;24.05;;;3.33;;
48765;SDS011;65794;51.836;5.002;2023-02-24T00:24:22;12.85;;;2.70;;
48765;SDS011;65794;51.836;5.002;2023-02-24T00:26:53;16.25;;;3.15;;
48765;SDS011;65794;51.836;5.002;2023-02-24T00:29:22;11.40;;;2.95;;
48765;SDS011;65794;51.836;5.002;2023-02-24T00:31:51;15.10;;;2.20;;
48765;SDS011;65794;51.836;5.002;2023-02-24T00:34:26;17.30;;;3.20;;
48765;SDS011;65794;51.836;5.002;2023-02-24T00:36:55;12.70;;;2.67;;
48765;SDS011;65794;51.836;5.002;2023-02-24T00:39:22;19.23;;;3.42;;
48765;SDS011;65794;51.836;5.002;2023-02-24T00:41:54;22.40;;;2.70;;
48765;SDS011;65794;51.836;5.002;2023-02-24T00:44:37;17.92;;;3.65;;
48765;SDS011;65794;51.836;5.002;2023-02-24T00:47:05;22.27;;;3.10;;
48765;SDS011;65794;51.836;5.002;2023-02-24T00:49:33;15.63;;;3.00;;
48765;SDS011;65794;51.836;5.002;2023-02-24T00:52:01;18.23;;;3.58;;
48765;SDS011;65794;51.836;5.002;2023-02-24T00:54:30;23.67;;;2.53;;
48765;SDS011;65794;51.836;5.002;2023-02-24T00:56:59;17.58;;;3.30;;
48765;SDS011;65794;51.836;5.002;2023-02-24T00:59:28;19.13;;;3.47;;
48765;SDS011;65794;51.836;5.002;2023-02-24T01:01:55;12.70;;;3.20;;
48765;SDS011;65794;51.836;5.002;2023-02-24T01:04:22;21.55;;;3.28;;
48765;SDS011;65794;51.836;5.002;2023-02-24T01:06:50;17.40;;;2.47;;
48765;SDS011;65794;51.836;5.002;2023-02-24T01:09:18;24.05;;;4.00;;
48765;SDS011;65794;51.836;5.002;2023-02-24T01:11:46;17.27;;;3.33;;
48765;SDS011;65794;51.836;5.002;2023-02-24T01:19:27;16.08;;;2.83;;
48765;SDS011;65794;51.836;5.002;2023-02-24T01:22:00;20.27;;;3.17;;
48765;SDS011;65794;51.836;5.002;2023-02-24T01:24:30;21.90;;;3.45;;
48765;SDS011;65794;51.836;5.002;2023-02-24T01:26:58;17.33;;;3.38;;
48765;SDS011;65794;51.836;5.002;2023-02-24T01:29:26;16.60;;;3.03;;
48765;SDS011;65794;51.836;5.002;2023-02-24T01:31:53;20.15;;;3.72;;
48765;SDS011;65794;51.836;5.002;2023-02-24T01:34:24;19.13;;;3.97;;
48765;SDS011;65794;51.836;5.002;2023-02-24T01:36:52;16.48;;;3.72;;
48765;SDS011;65794;51.836;5.002;2023-02-24T01:39:19;10.77;;;2.95;;
48765;SDS011;65794;51.836;5.002;2023-02-24T01:41:47;17.23;;;3.47;;
48765;SDS011;65794;51.836;5.002;2023-02-24T01:46:52;16.35;;;3.35;;
48765;SDS011;65794;51.836;5.002;2023-02-24T01:52:30;19.00;;;3.85;;
48765;SDS011;65794;51.836;5.002;2023-02-24T01:54:39;15.88;;;3.25;;
48765;SDS011;65794;51.836;5.002;2023-02-24T01:57:09;20.05;;;2.95;;
48765;SDS011;65794;51.836;5.002;2023-02-24T01:59:37;15.73;;;3.38;;
48765;SDS011;65794;51.836;5.002;2023-02-24T02:02:06;14.45;;;3.45;;
48765;SDS011;65794;51.836;5.002;2023-02-24T02:07:12;17.98;;;3.53;;
48765;SDS011;65794;51.836;5.002;2023-02-24T02:09:39;20.10;;;3.85;;
48765;SDS011;65794;51.836;5.002;2023-02-24T02:12:09;26.17;;;3.67;;
48765;SDS011;65794;51.836;5.002;2023-02-24T02:14:37;15.63;;;3.40;;
48765;SDS011;65794;51.836;5.002;2023-02-24T02:36:17;20.52;;;3.40;;
48765;SDS011;65794;51.836;5.002;2023-02-24T02:38:44;18.13;;;2.65;;
48765;SDS011;65794;51.836;5.002;2023-02-24T02:44:06;21.02;;;3.55;;
48765;SDS011;65794;51.836;5.002;2023-02-24T02:46:41;18.52;;;3.75;;
48765;SDS011;65794;51.836;5.002;2023-02-24T02:49:28;13.55;;;2.95;;
48765;SDS011;65794;51.836;5.002;2023-02-24T02:51:57;15.77;;;3.63;;
48765;SDS011;65794;51.836;5.002;2023-02-24T02:54:51;15.02;;;2.80;;
48765;SDS011;65794;51.836;5.002;2023-02-24T02:57:17;23.15;;;3.25;;
48765;SDS011;65794;51.836;5.002;2023-02-24T02:59:48;26.58;;;3.33;;
48765;SDS011;65794;51.836;5.002;2023-02-24T03:02:17;16.38;;;3.83;;
48765;SDS011;65794;51.836;5.002;2023-02-24T03:04:48;16.15;;;3.05;;
48765;SDS011;65794;51.836;5.002;2023-02-24T03:07:17;26.48;;;3.72;;
48765;SDS011;65794;51.836;5.002;2023-02-24T03:09:48;23.10;;;3.67;;
48765;SDS011;65794;51.836;5.002;2023-02-24T03:12:18;15.65;;;3.38;;
48765;SDS011;65794;51.836;5.002;2023-02-24T03:14:48;17.33;;;2.92;;
48765;SDS011;65794;51.836;5.002;2023-02-24T03:17:19;17.38;;;3.90;;
48765;SDS011;65794;51.836;5.002;2023-02-24T03:19:48;23.60;;;3.22;;
48765;SDS011;65794;51.836;5.002;2023-02-24T03:22:23;17.13;;;3.33;;
48765;SDS011;65794;51.836;5.002;2023-02-24T03:24:54;13.68;;;2.92;;
48765;SDS011;65794;51.836;5.002;2023-02-24T03:27:34;16.27;;;3.70;;
48765;SDS011;65794;51.836;5.002;2023-02-24T03:30:47;14.52;;;3.05;;
48765;SDS011;65794;51.836;5.002;2023-02-24T03:32:55;11.98;;;3.10;;
48765;SDS011;65794;51.836;5.002;2023-02-24T03:35:45;31.63;;;4.38;;
48765;SDS011;65794;51.836;5.002;2023-02-24T03:38:12;25.10;;;3.20;;
48765;SDS011;65794;51.836;5.002;2023-02-24T03:40:39;22.63;;;3.83;;
48765;SDS011;65794;51.836;5.002;2023-02-24T03:43:17;20.52;;;3.50;;
48765;SDS011;65794;51.836;5.002;2023-02-24T03:45:45;18.63;;;3.28;;
48765;SDS011;65794;51.836;5.002;2023-02-24T03:48:12;15.20;;;2.45;;
48765;SDS011;65794;51.836;5.002;2023-02-24T03:50:43;13.07;;;3.45;;
48765;SDS011;65794;51.836;5.002;2023-02-24T04:01:13;22.70;;;3.45;;
48765;SDS011;65794;51.836;5.002;2023-02-24T04:06:32;22.58;;;3.33;;
48765;SDS011;65794;51.836;5.002;2023-02-24T04:09:18;22.58;;;2.40;;
48765;SDS011;65794;51.836;5.002;2023-02-24T04:11:59;17.07;;;3.00;;
48765;SDS011;65794;51.836;5.002;2023-02-24T04:14:31;18.50;;;3.25;;
48765;SDS011;65794;51.836;5.002;2023-02-24T04:17:03;16.48;;;2.78;;
48765;SDS011;65794;51.836;5.002;2023-02-24T04:19:34;10.13;;;2.30;;
48765;SDS011;65794;51.836;5.002;2023-02-24T04:22:05;14.00;;;2.85;;
48765;SDS011;65794;51.836;5.002;2023-02-24T04:24:36;17.60;;;2.63;;
48765;SDS011;65794;51.836;5.002;2023-02-24T04:27:03;8.68;;;2.38;;
48765;SDS011;65794;51.836;5.002;2023-02-24T04:29:38;17.50;;;2.60;;
48765;SDS011;65794;51.836;5.002;2023-02-24T04:32:07;14.20;;;2.40;;
48765;SDS011;65794;51.836;5.002;2023-02-24T04:34:37;20.77;;;2.53;;
48765;SDS011;65794;51.836;5.002;2023-02-24T04:37:05;12.32;;;2.17;;
48765;SDS011;65794;51.836;5.002;2023-02-24T04:39:33;17.55;;;2.60;;
48765;SDS011;65794;51.836;5.002;2023-02-24T04:42:08;15.10;;;3.22;;
48765;SDS011;65794;51.836;5.002;2023-02-24T04:44:36;19.27;;;2.58;;
48765;SDS011;65794;51.836;5.002;2023-02-24T04:47:03;14.63;;;2.65;;
48765;SDS011;65794;51.836;5.002;2023-02-24T04:49:30;16.85;;;2.72;;
48765;SDS011;65794;51.836;5.002;2023-02-24T04:51:57;12.18;;;1.83;;
48765;SDS011;65794;51.836;5.002;2023-02-24T04:54:23;11.25;;;2.55;;
48765;SDS011;65794;51.836;5.002;2023-02-24T04:56:51;23.42;;;2.78;;
48765;SDS011;65794;51.836;5.002;2023-02-24T04:59:18;15.07;;;2.00;;
48765;SDS011;65794;51.836;5.002;2023-02-24T05:01:46;6.03;;;1.65;;
48765;SDS011;65794;51.836;5.002;2023-02-24T05:04:13;13.70;;;2.22;;
48765;SDS011;65794;51.836;5.002;2023-02-24T05:06:41;8.35;;;1.83;;
48765;SDS011;65794;51.836;5.002;2023-02-24T05:09:10;12.90;;;2.15;;
48765;SDS011;65794;51.836;5.002;2023-02-24T05:11:40;11.88;;;1.70;;
48765;SDS011;65794;51.836;5.002;2023-02-24T05:14:11;12.25;;;2.08;;
48765;SDS011;65794;51.836;5.002;2023-02-24T05:16:43;9.95;;;1.27;;
48765;SDS011;65794;51.836;5.002;2023-02-24T05:19:11;7.03;;;1.27;;
48765;SDS011;65794;51.836;5.002;2023-02-24T05:21:57;7.80;;;1.65;;
48765;SDS011;65794;51.836;5.002;2023-02-24T05:24:24;5.35;;;1.45;;
48765;SDS011;65794;51.836;5.002;2023-02-24T05:26:52;13.45;;;2.10;;
48765;SDS011;65794;51.836;5.002;2023-02-24T05:29:26;12.68;;;2.53;;
48765;SDS011;65794;51.836;5.002;2023-02-24T05:31:54;4.85;;;1.20;;
48765;SDS011;65794;51.836;5.002;2023-02-24T05:34:28;8.88;;;1.17;;
48765;SDS011;65794;51.836;5.002;2023-02-24T05:36:58;12.18;;;1.33;;
48765;SDS011;65794;51.836;5.002;2023-02-24T05:39:27;16.05;;;1.95;;
48765;SDS011;65794;51.836;5.002;2023-02-24T05:41:54;16.02;;;1.73;;
48765;SDS011;65794;51.836;5.002;2023-02-24T05:44:23;6.78;;;1.20;;
48765;SDS011;65794;51.836;5.002;2023-02-24T05:46:54;14.80;;;1.45;;
48765;SDS011;65794;51.836;5.002;2023-02-24T05:49:28;11.40;;;1.60;;
48765;SDS011;65794;51.836;5.002;2023-02-24T05:51:59;4.50;;;0.77;;
48765;SDS011;65794;51.836;5.002;2023-02-24T05:54:28;7.13;;;1.20;;
48765;SDS011;65794;51.836;5.002;2023-02-24T05:56:59;12.25;;;1.80;;
48765;SDS011;65794;51.836;5.002;2023-02-24T05:59:26;10.70;;;1.25;;
48765;SDS011;65794;51.836;5.002;2023-02-24T06:01:59;9.20;;;1.25;;
48765;SDS011;65794;51.836;5.002;2023-02-24T06:04:26;10.93;;;1.38;;
48765;SDS011;65794;51.836;5.002;2023-02-24T06:09:32;8.10;;;1.13;;
48765;SDS011;65794;51.836;5.002;2023-02-24T06:12:00;15.60;;;2.17;;
48765;SDS011;65794;51.836;5.002;2023-02-24T06:14:28;7.10;;;1.23;;
48765;SDS011;65794;51.836;5.002;2023-02-24T06:16:56;7.13;;;1.40;;
48765;SDS011;65794;51.836;5.002;2023-02-24T06:19:23;9.95;;;1.58;;
48765;SDS011;65794;51.836;5.002;2023-02-24T06:21:51;11.05;;;1.42;;
48765;SDS011;65794;51.836;5.002;2023-02-24T06:24:18;3.10;;;0.85;;
48765;SDS011;65794;51.836;5.002;2023-02-24T06:26:45;6.15;;;1.15;;
48765;SDS011;65794;51.836;5.002;2023-02-24T06:29:13;5.95;;;0.75;;
48765;SDS011;65794;51.836;5.002;2023-02-24T06:31:41;13.35;;;0.80;;
48765;SDS011;65794;51.836;5.002;2023-02-24T06:34:08;4.70;;;0.65;;
48765;SDS011;65794;51.836;5.002;2023-02-24T06:36:36;10.02;;;1.25;;
48765;SDS011;65794;51.836;5.002;2023-02-24T06:39:04;1.92;;;0.60;;
48765;SDS011;65794;51.836;5.002;2023-02-24T06:41:34;6.07;;;0.90;;
48765;SDS011;65794;51.836;5.002;2023-02-24T06:44:01;6.88;;;0.70;;
48765;SDS011;65794;51.836;5.002;2023-02-24T06:46:27;11.55;;;0.73;;
48765;SDS011;65794;51.836;5.002;2023-02-24T06:48:55;9.60;;;0.60;;
48765;SDS011;65794;51.836;5.002;2023-02-24T06:51:23;12.90;;;1.02;;
48765;SDS011;65794;51.836;5.002;2023-02-24T06:53:55;8.60;;;1.15;;
48765;SDS011;65794;51.836;5.002;2023-02-24T06:56:22;9.55;;;1.10;;
48765;SDS011;65794;51.836;5.002;2023-02-24T06:58:50;14.93;;;1.10;;
48765;SDS011;65794;51.836;5.002;2023-02-24T07:01:22;5.38;;;0.88;;
48765;SDS011;65794;51.836;5.002;2023-02-24T07:03:52;6.38;;;0.73;;
48765;SDS011;65794;51.836;5.002;2023-02-24T07:06:44;4.32;;;0.88;;
48765;SDS011;65794;51.836;5.002;2023-02-24T07:09:13;6.03;;;0.98;;
48765;SDS011;65794;51.836;5.002;2023-02-24T07:11:41;12.43;;;1.00;;
48765;SDS011;65794;51.836;5.002;2023-02-24T07:14:11;9.68;;;1.02;;
48765;SDS011;65794;51.836;5.002;2023-02-24T07:16:39;10.40;;;1.23;;
48765;SDS011;65794;51.836;5.002;2023-02-24T07:19:13;7.78;;;1.02;;
48765;SDS011;65794;51.836;5.002;2023-02-24T07:21:41;8.85;;;1.25;;
48765;SDS011;65794;51.836;5.002;2023-02-24T07:24:13;13.07;;;1.15;;
48765;SDS011;65794;51.836;5.002;2023-02-24T07:26:40;9.27;;;1.23;;
48765;SDS011;65794;51.836;5.002;2023-02-24T07:29:08;11.88;;;1.20;;
48765;SDS011;65794;51.836;5.002;2023-02-24T07:31:37;14.15;;;1.50;;
48765;SDS011;65794;51.836;5.002;2023-02-24T07:34:04;8.80;;;1.40;;
48765;SDS011;65794;51.836;5.002;2023-02-24T07:36:32;10.05;;;1.17;;
48765;SDS011;65794;51.836;5.002;2023-02-24T07:39:05;10.38;;;1.10;;
48765;SDS011;65794;51.836;5.002;2023-02-24T07:41:33;7.20;;;1.30;;
48765;SDS011;65794;51.836;5.002;2023-02-24T07:44:00;11.52;;;1.38;;
48765;SDS011;65794;51.836;5.002;2023-02-24T07:46:29;10.65;;;1.52;;
48765;SDS011;65794;51.836;5.002;2023-02-24T07:48:56;9.32;;;1.00;;
48765;SDS011;65794;51.836;5.002;2023-02-24T07:51:26;7.95;;;1.08;;
48765;SDS011;65794;51.836;5.002;2023-02-24T07:53:54;12.13;;;1.92;;
48765;SDS011;65794;51.836;5.002;2023-02-24T07:56:25;7.25;;;1.17;;
48765;SDS011;65794;51.836;5.002;2023-02-24T07:58:53;15.43;;;1.58;;
48765;SDS011;65794;51.836;5.002;2023-02-24T08:01:25;10.40;;;1.00;;
48765;SDS011;65794;51.836;5.002;2023-02-24T08:03:54;8.90;;;1.30;;
48765;SDS011;65794;51.836;5.002;2023-02-24T08:06:33;7.05;;;1.33;;
48765;SDS011;65794;51.836;5.002;2023-02-24T08:14:12;13.10;;;1.77;;
48765;SDS011;65794;51.836;5.002;2023-02-24T08:16:40;11.60;;;1.40;;
48765;SDS011;65794;51.836;5.002;2023-02-24T08:19:09;16.10;;;1.63;;
48765;SDS011;65794;51.836;5.002;2023-02-24T08:21:39;10.65;;;1.70;;
48765;SDS011;65794;51.836;5.002;2023-02-24T08:24:12;8.70;;;1.10;;
48765;SDS011;65794;51.836;5.002;2023-02-24T08:26:46;9.57;;;1.52;;
48765;SDS011;65794;51.836;5.002;2023-02-24T08:30:12;7.72;;;1.33;;
48765;SDS011;65794;51.836;5.002;2023-02-24T08:32:31;7.93;;;1.23;;
48765;SDS011;65794;51.836;5.002;2023-02-24T08:35:06;14.13;;;0.98;;
48765;SDS011;65794;51.836;5.002;2023-02-24T08:37:41;7.55;;;1.08;;
48765;SDS011;65794;51.836;5.002;2023-02-24T08:40:22;12.18;;;1.63;;
48765;SDS011;65794;51.836;5.002;2023-02-24T08:43:00;7.45;;;1.17;;
48765;SDS011;65794;51.836;5.002;2023-02-24T08:45:43;6.43;;;0.93;;
48765;SDS011;65794;51.836;5.002;2023-02-24T08:48:14;13.38;;;1.70;;
48765;SDS011;65794;51.836;5.002;2023-02-24T08:50:44;12.73;;;1.20;;
48765;SDS011;65794;51.836;5.002;2023-02-24T08:53:11;16.65;;;2.08;;
48765;SDS011;65794;51.836;5.002;2023-02-24T08:55:45;8.85;;;1.20;;
48765;SDS011;65794;51.836;5.002;2023-02-24T08:58:12;17.40;;;1.70;;
48765;SDS011;65794;51.836;5.002;2023-02-24T09:00:44;10.98;;;1.48;;
48765;SDS011;65794;51.836;5.002;2023-02-24T09:03:20;7.00;;;1.33;;
48765;SDS011;65794;51.836;5.002;2023-02-24T09:08:23;10.27;;;1.90;;
48765;SDS011;65794;51.836;5.002;2023-02-24T09:10:53;19.85;;;2.38;;
48765;SDS011;65794;51.836;5.002;2023-02-24T09:13:23;13.40;;;2.00;;
48765;SDS011;65794;51.836;5.002;2023-02-24T09:15:59;10.10;;;1.60;;
48765;SDS011;65794;51.836;5.002;2023-02-24T09:18:26;12.68;;;2.03;;
48765;SDS011;65794;51.836;5.002;2023-02-24T09:20:56;13.43;;;1.75;;
48765;SDS011;65794;51.836;5.002;2023-02-24T09:23:41;22.23;;;2.60;;
48765;SDS011;65794;51.836;5.002;2023-02-24T09:26:11;15.25;;;2.05;;
48765;SDS011;65794;51.836;5.002;2023-02-24T09:28:39;12.45;;;1.60;;
48765;SDS011;65794;51.836;5.002;2023-02-24T09:31:20;5.53;;;1.45;;
48765;SDS011;65794;51.836;5.002;2023-02-24T09:33:50;12.43;;;2.25;;
48765;SDS011;65794;51.836;5.002;2023-02-24T09:36:17;7.95;;;1.75;;
48765;SDS011;65794;51.836;5.002;2023-02-24T09:38:57;12.38;;;1.90;;
48765;SDS011;65794;51.836;5.002;2023-02-24T09:41:38;9.95;;;1.63;;
48765;SDS011;65794;51.836;5.002;2023-02-24T09:44:32;17.45;;;1.95;;
48765;SDS011;65794;51.836;5.002;2023-02-24T09:47:16;10.73;;;1.95;;
48765;SDS011;65794;51.836;5.002;2023-02-24T09:49:57;10.90;;;1.95;;
48765;SDS011;65794;51.836;5.002;2023-02-24T09:52:27;15.13;;;1.63;;
48765;SDS011;65794;51.836;5.002;2023-02-24T09:55:15;10.88;;;2.33;;
48765;SDS011;65794;51.836;5.002;2023-02-24T10:04:01;7.68;;;1.85;;
48765;SDS011;65794;51.836;5.002;2023-02-24T10:17:12;12.55;;;2.47;;
48765;SDS011;65794;51.836;5.002;2023-02-24T10:19:49;13.02;;;2.75;;
48765;SDS011;65794;51.836;5.002;2023-02-24T10:25:00;11.80;;;2.00;;
48765;SDS011;65794;51.836;5.002;2023-02-24T10:27:40;13.35;;;2.65;;
48765;SDS011;65794;51.836;5.002;2023-02-24T10:32:52;17.75;;;2.50;;
48765;SDS011;65794;51.836;5.002;2023-02-24T10:35:20;15.50;;;2.20;;
48765;SDS011;65794;51.836;5.002;2023-02-24T10:37:47;16.40;;;3.20;;
48765;SDS011;65794;51.836;5.002;2023-02-24T10:40:15;12.48;;;2.72;;
48765;SDS011;65794;51.836;5.002;2023-02-24T10:43:02;13.88;;;3.10;;
48765;SDS011;65794;51.836;5.002;2023-02-24T10:45:29;10.88;;;2.92;;
48765;SDS011;65794;51.836;5.002;2023-02-24T10:48:05;14.93;;;2.38;;
48765;SDS011;65794;51.836;5.002;2023-02-24T10:50:38;21.83;;;3.13;;
48765;SDS011;65794;51.836;5.002;2023-02-24T10:53:23;20.52;;;3.38;;
48765;SDS011;65794;51.836;5.002;2023-02-24T10:56:01;14.50;;;3.05;;
48765;SDS011;65794;51.836;5.002;2023-02-24T10:58:58;18.88;;;3.25;;
48765;SDS011;65794;51.836;5.002;2023-02-24T11:01:49;10.52;;;3.38;;
48765;SDS011;65794;51.836;5.002;2023-02-24T11:04:30;20.80;;;3.47;;
48765;SDS011;65794;51.836;5.002;2023-02-24T11:07:03;20.73;;;3.97;;
48765;SDS011;65794;51.836;5.002;2023-02-24T11:09:38;13.15;;;3.45;;
48765;SDS011;65794;51.836;5.002;2023-02-24T11:12:21;12.90;;;2.60;;
48765;SDS011;65794;51.836;5.002;2023-02-24T11:15:33;9.75;;;2.28;;
48765;SDS011;65794;51.836;5.002;2023-02-24T11:18:22;16.85;;;3.25;;
48765;SDS011;65794;51.836;5.002;2023-02-24T11:20:51;13.57;;;3.78;;
48765;SDS011;65794;51.836;5.002;2023-02-24T11:23:25;16.60;;;3.70;;
48765;SDS011;65794;51.836;5.002;2023-02-24T11:25:58;16.20;;;3.63;;
48765;SDS011;65794;51.836;5.002;2023-02-24T11:33:46;14.18;;;3.47;;
48765;SDS011;65794;51.836;5.002;2023-02-24T11:38:45;11.95;;;2.72;;
48765;SDS011;65794;51.836;5.002;2023-02-24T11:43:42;14.18;;;4.50;;
48765;SDS011;65794;51.836;5.002;2023-02-24T11:46:12;19.00;;;4.13;;
48765;SDS011;65794;51.836;5.002;2023-02-24T11:51:18;15.48;;;4.53;;
48765;SDS011;65794;51.836;5.002;2023-02-24T11:53:48;15.30;;;4.18;;
48765;SDS011;65794;51.836;5.002;2023-02-24T11:56:33;16.15;;;4.40;;
48765;SDS011;65794;51.836;5.002;2023-02-24T12:01:30;11.43;;;4.07;;
48765;SDS011;65794;51.836;5.002;2023-02-24T12:04:08;17.60;;;5.30;;
48765;SDS011;65794;51.836;5.002;2023-02-24T12:06:49;21.52;;;5.80;;
48765;SDS011;65794;51.836;5.002;2023-02-24T12:09:18;17.23;;;5.28;;
48765;SDS011;65794;51.836;5.002;2023-02-24T12:11:47;18.10;;;6.53;;
48765;SDS011;65794;51.836;5.002;2023-02-24T12:14:25;21.80;;;7.72;;
48765;SDS011;65794;51.836;5.002;2023-02-24T12:17:02;17.85;;;7.80;;
48765;SDS011;65794;51.836;5.002;2023-02-24T12:19:40;20.90;;;8.07;;
48765;SDS011;65794;51.836;5.002;2023-02-24T12:22:15;17.42;;;8.00;;
48765;SDS011;65794;51.836;5.002;2023-02-24T12:24:44;21.58;;;7.63;;
48765;SDS011;65794;51.836;5.002;2023-02-24T12:33:25;20.92;;;8.00;;
48765;SDS011;65794;51.836;5.002;2023-02-24T12:46:35;22.00;;;7.45;;
48765;SDS011;65794;51.836;5.002;2023-02-24T12:49:09;20.88;;;6.90;;
48765;SDS011;65794;51.836;5.002;2023-02-24T12:54:32;22.45;;;8.75;;
48765;SDS011;65794;51.836;5.002;2023-02-24T12:59:36;22.00;;;8.27;;
48765;SDS011;65794;51.836;5.002;2023-02-24T13:09:49;18.10;;;7.13;;
48765;SDS011;65794;51.836;5.002;2023-02-24T13:15:18;24.13;;;7.32;;
48765;SDS011;65794;51.836;5.002;2023-02-24T13:17:45;26.60;;;8.00;;
48765;SDS011;65794;51.836;5.002;2023-02-24T13:20:24;17.42;;;6.72;;
48765;SDS011;65794;51.836;5.002;2023-02-24T13:22:51;22.67;;;6.20;;
48765;SDS011;65794;51.836;5.002;2023-02-24T13:25:19;25.80;;;5.88;;
48765;SDS011;65794;51.836;5.002;2023-02-24T13:27:54;23.33;;;5.90;;
48765;SDS011;65794;51.836;5.002;2023-02-24T13:30:24;17.85;;;5.93;;
48765;SDS011;65794;51.836;5.002;2023-02-24T13:32:59;19.58;;;5.13;;
48765;SDS011;65794;51.836;5.002;2023-02-24T13:35:30;16.35;;;4.50;;
48765;SDS011;65794;51.836;5.002;2023-02-24T13:38:06;28.52;;;3.63;;
48765;SDS011;65794;51.836;5.002;2023-02-24T13:40:34;23.80;;;3.58;;
48765;SDS011;65794;51.836;5.002;2023-02-24T13:43:01;16.25;;;3.05;;
48765;SDS011;65794;51.836;5.002;2023-02-24T13:53:41;17.52;;;2.83;;
48765;SDS011;65794;51.836;5.002;2023-02-24T13:58:58;23.30;;;3.15;;
48765;SDS011;65794;51.836;5.002;2023-02-24T14:01:28;22.77;;;3.10;;
48765;SDS011;65794;51.836;5.002;2023-02-24T14:06:38;20.58;;;2.42;;
48765;SDS011;65794;51.836;5.002;2023-02-24T14:09:11;14.10;;;2.30;;
48765;SDS011;65794;51.836;5.002;2023-02-24T14:11:41;16.80;;;2.38;;
48765;SDS011;65794;51.836;5.002;2023-02-24T14:14:12;14.68;;;1.50;;
48765;SDS011;65794;51.836;5.002;2023-02-24T14:16:41;9.70;;;1.45;;
48765;SDS011;65794;51.836;5.002;2023-02-24T14:19:12;4.95;;;1.08;;
48765;SDS011;65794;51.836;5.002;2023-02-24T14:21:45;12.38;;;1.60;;
48765;SDS011;65794;51.836;5.002;2023-02-24T14:24:14;11.90;;;1.20;;
48765;SDS011;65794;51.836;5.002;2023-02-24T14:26:43;13.40;;;1.83;;
48765;SDS011;65794;51.836;5.002;2023-02-24T14:29:12;18.50;;;2.35;;
48765;SDS011;65794;51.836;5.002;2023-02-24T14:31:40;26.20;;;3.00;;
48765;SDS011;65794;51.836;5.002;2023-02-24T14:34:11;26.75;;;3.60;;
48765;SDS011;65794;51.836;5.002;2023-02-24T14:36:41;23.15;;;2.45;;
48765;SDS011;65794;51.836;5.002;2023-02-24T14:39:14;28.52;;;3.30;;
48765;SDS011;65794;51.836;5.002;2023-02-24T14:41:41;13.20;;;1.67;;
48765;SDS011;65794;51.836;5.002;2023-02-24T14:44:22;17.30;;;2.17;;
48765;SDS011;65794;51.836;5.002;2023-02-24T14:46:51;18.10;;;2.25;;
48765;SDS011;65794;51.836;5.002;2023-02-24T14:49:20;9.80;;;1.60;;
48765;SDS011;65794;51.836;5.002;2023-02-24T14:51:48;21.50;;;2.03;;
48765;SDS011;65794;51.836;5.002;2023-02-24T14:54:18;11.05;;;1.80;;
48765;SDS011;65794;51.836;5.002;2023-02-24T14:56:46;26.83;;;2.50;;
48765;SDS011;65794;51.836;5.002;2023-02-24T14:59:15;17.00;;;1.70;;
48765;SDS011;65794;51.836;5.002;2023-02-24T15:01:44;12.90;;;2.20;;
48765;SDS011;65794;51.836;5.002;2023-02-24T15:04:32;12.32;;;2.47;;
48765;SDS011;65794;51.836;5.002;2023-02-24T15:07:00;13.70;;;1.88;;
48765;SDS011;65794;51.836;5.002;2023-02-24T15:09:32;10.88;;;2.17;;
48765;SDS011;65794;51.836;5.002;2023-02-24T15:12:06;13.10;;;2.45;;
48765;SDS011;65794;51.836;5.002;2023-02-24T15:14:33;14.38;;;1.40;;
48765;SDS011;65794;51.836;5.002;2023-02-24T15:17:02;10.55;;;1.55;;
48765;SDS011;65794;51.836;5.002;2023-02-24T15:19:33;16.15;;;1.67;;
48765;SDS011;65794;51.836;5.002;2023-02-24T15:22:15;15.80;;;1.65;;
48765;SDS011;65794;51.836;5.002;2023-02-24T15:24:43;9.23;;;1.50;;
48765;SDS011;65794;51.836;5.002;2023-02-24T15:29:43;13.13;;;1.30;;
48765;SDS011;65794;51.836;5.002;2023-02-24T15:32:17;16.98;;;2.17;;
48765;SDS011;65794;51.836;5.002;2023-02-24T15:34:45;13.40;;;1.33;;
48765;SDS011;65794;51.836;5.002;2023-02-24T15:37:14;10.48;;;1.52;;
48765;SDS011;65794;51.836;5.002;2023-02-24T15:39:42;18.52;;;1.67;;
48765;SDS011;65794;51.836;5.002;2023-02-24T15:44:52;8.45;;;1.23;;
48765;SDS011;65794;51.836;5.002;2023-02-24T15:47:23;5.57;;;0.95;;
48765;SDS011;65794;51.836;5.002;2023-02-24T15:49:50;14.45;;;1.20;;
48765;SDS011;65794;51.836;5.002;2023-02-24T15:52:27;11.07;;;1.02;;
48765;SDS011;65794;51.836;5.002;2023-02-24T15:54:54;13.88;;;1.33;;
48765;SDS011;65794;51.836;5.002;2023-02-24T15:57:23;9.82;;;1.25;;
48765;SDS011;65794;51.836;5.002;2023-02-24T15:59:51;5.75;;;0.55;;
48765;SDS011;65794;51.836;5.002;2023-02-24T16:02:19;11.35;;;1.25;;
48765;SDS011;65794;51.836;5.002;2023-02-24T16:04:47;7.18;;;0.47;;
48765;SDS011;65794;51.836;5.002;2023-02-24T16:07:18;8.50;;;1.42;;
48765;SDS011;65794;51.836;5.002;2023-02-24T16:09:46;3.20;;;0.50;;
48765;SDS011;65794;51.836;5.002;2023-02-24T16:12:19;9.43;;;1.33;;
48765;SDS011;65794;51.836;5.002;2023-02-24T16:14:47;10.23;;;0.80;;
48765;SDS011;65794;51.836;5.002;2023-02-24T16:17:17;8.52;;;0.75;;
48765;SDS011;65794;51.836;5.002;2023-02-24T16:19:47;10.10;;;1.10;;
48765;SDS011;65794;51.836;5.002;2023-02-24T16:22:14;17.73;;;1.15;;
48765;SDS011;65794;51.836;5.002;2023-02-24T16:24:40;12.38;;;1.23;;
48765;SDS011;65794;51.836;5.002;2023-02-24T16:27:14;12.40;;;1.02;;
48765;SDS011;65794;51.836;5.002;2023-02-24T16:29:42;6.45;;;1.02;;
48765;SDS011;65794;51.836;5.002;2023-02-24T16:32:09;6.63;;;1.33;;
48765;SDS011;65794;51.836;5.002;2023-02-24T16:34:37;10.23;;;1.42;;
48765;SDS011;65794;51.836;5.002;2023-02-24T16:37:18;6.18;;;0.98;;
48765;SDS011;65794;51.836;5.002;2023-02-24T16:39:45;15.23;;;1.02;;
48765;SDS011;65794;51.836;5.002;2023-02-24T16:42:13;11.35;;;1.27;;
48765;SDS011;65794;51.836;5.002;2023-02-24T16:44:40;6.75;;;1.00;;
48765;SDS011;65794;51.836;5.002;2023-02-24T16:47:07;9.93;;;1.20;;
48765;SDS011;65794;51.836;5.002;2023-02-24T16:49:37;9.25;;;0.95;;
48765;SDS011;65794;51.836;5.002;2023-02-24T16:52:05;7.03;;;0.73;;
48765;SDS011;65794;51.836;5.002;2023-02-24T16:54:32;8.48;;;0.85;;
48765;SDS011;65794;51.836;5.002;2023-02-24T16:56:58;5.75;;;0.60;;
48765;SDS011;65794;51.836;5.002;2023-02-24T16:59:25;7.60;;;0.75;;
48765;SDS011;65794;51.836;5.002;2023-02-24T17:01:53;3.85;;;0.60;;
48765;SDS011;65794;51.836;5.002;2023-02-24T17:04:21;7.68;;;0.80;;
48765;SDS011;65794;51.836;5.002;2023-02-24T17:06:50;8.02;;;0.80;;
48765;SDS011;65794;51.836;5.002;2023-02-24T17:09:19;6.65;;;0.95;;
48765;SDS011;65794;51.836;5.002;2023-02-24T17:11:46;4.95;;;0.80;;
48765;SDS011;65794;51.836;5.002;2023-02-24T17:14:14;11.57;;;1.25;;
48765;SDS011;65794;51.836;5.002;2023-02-24T17:16:41;8.02;;;0.95;;
48765;SDS011;65794;51.836;5.002;2023-02-24T17:19:08;13.23;;;1.77;;
48765;SDS011;65794;51.836;5.002;2023-02-24T17:21:36;8.18;;;1.70;;
48765;SDS011;65794;51.836;5.002;2023-02-24T17:24:05;13.43;;;1.58;;
48765;SDS011;65794;51.836;5.002;2023-02-24T17:26:32;11.15;;;1.42;;
48765;SDS011;65794;51.836;5.002;2023-02-24T17:28:59;11.88;;;1.85;;
48765;SDS011;65794;51.836;5.002;2023-02-24T17:31:26;11.38;;;1.63;;